createdAt,value
2022-12-24T00:00:58.872Z,5.03
2022-12-24T00:03:25.720Z,1.10
2022-12-24T00:05:52.522Z,1.70
2022-12-24T00:08:19.813Z,3.38
2022-12-24T00:10:53.136Z,2.53
2022-12-24T00:13:20.298Z,0.75
2022-12-24T00:15:47.501Z,1.77
2022-12-24T00:18:14.631Z,1.95
2022-12-24T00:20:41.646Z,1.77
2022-12-24T00:23:08.834Z,0.93
2022-12-24T00:25:35.478Z,2.03
2022-12-24T00:28:02.319Z,1.50
2022-12-24T00:32:56.021Z,1.63
2022-12-24T00:35:22.836Z,2.70
2022-12-24T00:40:17.695Z,0.77
2022-12-24T00:42:44.629Z,3.40
2022-12-24T00:45:12.457Z,2.58
2022-12-24T00:47:39.330Z,0.55
2022-12-24T00:52:33.514Z,1.57
2022-12-24T00:55:00.214Z,0.68
2022-12-24T00:57:26.967Z,0.55
2022-12-24T00:59:53.687Z,1.15
2022-12-24T01:02:20.453Z,0.70
2022-12-24T01:05:05.906Z,2.70
2022-12-24T01:07:32.662Z,0.50
2022-12-24T01:09:59.310Z,3.47
2022-12-24T01:12:26.358Z,2.67
2022-12-24T01:14:53.037Z,1.88
2022-12-24T01:17:19.758Z,0.80
2022-12-24T01:19:46.483Z,4.15
2022-12-24T01:22:13.153Z,0.40
2022-12-24T01:24:43.611Z,2.03
2022-12-24T01:27:10.353Z,2.80
2022-12-24T01:29:37.101Z,1.85
2022-12-24T01:34:30.902Z,1.45
2022-12-24T01:36:57.582Z,2.50
2022-12-24T01:39:24.438Z,2.08
2022-12-24T01:44:42.253Z,5.93
2022-12-24T01:47:14.988Z,2.90
2022-12-24T01:49:47.779Z,0.60
2022-12-24T01:52:19.647Z,1.83
2022-12-24T01:54:58.115Z,2.10
2022-12-24T01:57:31.719Z,3.58
2022-12-24T02:00:02.690Z,3.00
2022-12-24T02:02:33.670Z,5.93
2022-12-24T02:05:22.474Z,2.00
2022-12-24T02:07:49.797Z,3.17
2022-12-24T02:10:16.953Z,3.10
2022-12-24T02:12:45.013Z,2.15
2022-12-24T02:15:15.968Z,1.52
2022-12-24T02:18:08.356Z,1.85
2022-12-24T02:21:09.974Z,1.88
2022-12-24T02:23:57.974Z,23.25
2022-12-24T02:26:37.567Z,1.10
2022-12-24T02:29:39.627Z,5.65
2022-12-24T02:32:14.499Z,1.90
2022-12-24T02:34:46.805Z,2.25
2022-12-24T02:37:28.006Z,3.78
2022-12-24T02:39:54.706Z,1.55
2022-12-24T02:42:27.095Z,4.72
2022-12-24T02:45:03.155Z,2.65
2022-12-24T02:47:34.132Z,1.25
2022-12-24T02:50:03.675Z,3.95
2022-12-24T02:52:39.225Z,1.10
2022-12-24T02:55:12.268Z,1.17
2022-12-24T02:57:54.905Z,1.90
2022-12-24T03:00:23.960Z,3.55
2022-12-24T03:03:10.867Z,1.70
2022-12-24T03:06:00.452Z,2.53
2022-12-24T03:08:50.222Z,0.57
2022-12-24T03:11:18.196Z,1.80
2022-12-24T03:13:46.326Z,3.30
2022-12-24T03:16:17.233Z,1.45
2022-12-24T03:18:47.352Z,6.68
2022-12-24T03:21:20.222Z,0.88
2022-12-24T03:23:47.906Z,2.88
2022-12-24T03:26:18.088Z,4.07
2022-12-24T03:28:46.640Z,2.70
2022-12-24T03:31:13.709Z,3.40
2022-12-24T03:33:40.636Z,1.63
2022-12-24T03:38:35.011Z,0.67
2022-12-24T03:41:02.249Z,0.40
2022-12-24T03:43:29.469Z,1.30
2022-12-24T03:45:56.267Z,3.13
2022-12-24T03:50:58.843Z,0.63
2022-12-24T03:53:25.564Z,0.68
2022-12-24T03:58:18.848Z,2.83
2022-12-24T04:00:45.548Z,0.52
2022-12-24T04:03:12.366Z,0.30
2022-12-24T04:05:39.154Z,0.85
2022-12-24T04:08:05.921Z,0.35
2022-12-24T04:12:59.440Z,0.30
2022-12-24T04:15:26.159Z,0.65
2022-12-24T04:17:52.838Z,1.90
2022-12-24T04:20:19.551Z,1.17
2022-12-24T04:25:12.922Z,3.20
2022-12-24T04:30:06.901Z,0.75
2022-12-24T04:32:33.638Z,0.32
2022-12-24T04:35:00.295Z,0.98
2022-12-24T04:37:26.991Z,0.50
2022-12-24T04:39:53.625Z,0.90
2022-12-24T04:42:20.287Z,0.95
2022-12-24T04:44:46.948Z,0.90
2022-12-24T04:47:13.705Z,1.20
2022-12-24T04:52:06.975Z,5.30
2022-12-24T04:54:33.656Z,0.98
2022-12-24T04:59:26.897Z,3.30
2022-12-24T05:01:53.756Z,2.65
2022-12-24T05:04:20.514Z,1.38
2022-12-24T05:06:47.196Z,2.50
2022-12-24T05:09:13.970Z,2.50
2022-12-24T05:11:40.653Z,1.65
2022-12-24T05:14:07.295Z,1.42
2022-12-24T05:16:33.995Z,1.65
2022-12-24T05:19:00.710Z,2.47
2022-12-24T05:24:13.002Z,2.60
2022-12-24T05:26:51.532Z,2.92
2022-12-24T05:29:18.549Z,2.88
2022-12-24T05:31:46.290Z,2.05
2022-12-24T05:34:14.676Z,1.65
2022-12-24T05:36:43.760Z,1.25
2022-12-24T05:39:16.026Z,1.45
2022-12-24T05:41:43.326Z,1.95
2022-12-24T05:44:10.130Z,0.80
2022-12-24T05:49:03.610Z,1.42
2022-12-24T05:53:57.142Z,1.25
2022-12-24T05:58:52.244Z,1.83
2022-12-24T06:01:19.709Z,1.20
2022-12-24T06:03:46.746Z,1.08
2022-12-24T06:06:19.032Z,2.55
2022-12-24T06:08:46.100Z,1.02
2022-12-24T06:11:15.810Z,2.08
2022-12-24T06:13:43.412Z,0.80
2022-12-24T06:16:13.632Z,2.15
2022-12-24T06:18:40.734Z,0.85
2022-12-24T06:21:07.999Z,1.95
2022-12-24T06:23:37.124Z,4.75
2022-12-24T06:26:05.403Z,4.10
2022-12-24T06:28:34.468Z,2.97
2022-12-24T06:31:03.217Z,1.27
2022-12-24T06:33:31.744Z,2.78
2022-12-24T06:35:58.510Z,1.63
2022-12-24T06:40:52.018Z,1.95
2022-12-24T06:45:47.292Z,3.58
2022-12-24T06:48:15.591Z,1.02
2022-12-24T06:50:42.730Z,2.50
2022-12-24T06:53:10.011Z,1.20
2022-12-24T06:55:36.961Z,1.50
2022-12-24T06:58:04.302Z,1.73
2022-12-24T07:00:31.184Z,1.25
2022-12-24T07:02:58.410Z,3.55
2022-12-24T07:05:25.643Z,5.38
2022-12-24T07:07:52.717Z,2.05
2022-12-24T07:12:47.134Z,1.98
2022-12-24T07:15:15.199Z,0.65
2022-12-24T07:17:41.994Z,1.77
2022-12-24T07:22:37.249Z,2.08
2022-12-24T07:27:30.796Z,2.40
2022-12-24T07:29:57.462Z,1.20
2022-12-24T07:32:24.095Z,1.27
2022-12-24T07:34:50.780Z,1.60
2022-12-24T07:37:17.411Z,7.13
2022-12-24T07:39:44.057Z,3.42
2022-12-24T07:42:10.864Z,2.17
2022-12-24T07:47:04.340Z,2.08
2022-12-24T07:51:57.846Z,0.30
2022-12-24T07:54:24.740Z,2.25
2022-12-24T07:56:51.398Z,1.85
2022-12-24T07:59:18.178Z,0.57
2022-12-24T08:04:12.782Z,1.88
2022-12-24T08:06:40.073Z,9.18
2022-12-24T08:09:06.730Z,1.48
2022-12-24T08:11:33.619Z,0.60
2022-12-24T08:16:27.260Z,2.72
2022-12-24T08:18:53.953Z,1.38
2022-12-24T08:21:20.673Z,3.08
2022-12-24T08:23:47.740Z,3.30
2022-12-24T08:26:14.403Z,0.77
2022-12-24T08:28:41.163Z,0.95
2022-12-24T08:33:34.986Z,1.15
2022-12-24T08:36:02.880Z,0.88
2022-12-24T08:38:29.790Z,0.52
2022-12-24T08:40:56.675Z,1.65
2022-12-24T08:45:52.524Z,1.35
2022-12-24T08:48:19.306Z,1.42
2022-12-24T08:53:13.174Z,0.47
2022-12-24T08:55:40.135Z,1.08
2022-12-24T08:58:07.647Z,1.70
2022-12-24T09:00:34.556Z,1.30
2022-12-24T09:03:01.621Z,0.47
2022-12-24T09:05:29.013Z,1.38
2022-12-24T09:07:56.028Z,0.60
2022-12-24T09:12:49.557Z,0.55
2022-12-24T09:17:43.815Z,0.40
2022-12-24T09:20:10.953Z,1.15
2022-12-24T09:22:39.479Z,3.55
2022-12-24T09:25:07.222Z,0.70
2022-12-24T09:27:34.323Z,2.20
2022-12-24T09:30:01.033Z,3.22
2022-12-24T09:32:27.748Z,0.50
2022-12-24T09:37:21.015Z,1.00
2022-12-24T09:39:47.779Z,0.55
2022-12-24T09:44:47.137Z,0.52
2022-12-24T09:47:26.086Z,1.45
2022-12-24T09:49:56.410Z,0.75
2022-12-24T09:52:40.482Z,0.20
2022-12-24T09:55:26.002Z,0.40
2022-12-24T09:57:54.641Z,0.40
2022-12-24T10:00:25.669Z,0.70
2022-12-24T10:02:52.975Z,0.80
2022-12-24T10:05:43.569Z,1.52
2022-12-24T10:08:28.750Z,0.40
2022-12-24T10:11:11.496Z,1.40
2022-12-24T10:13:46.625Z,0.47
2022-12-24T10:16:38.494Z,2.03
2022-12-24T10:19:29.012Z,0.40
2022-12-24T10:22:07.239Z,0.45
2022-12-24T10:24:51.265Z,2.75
2022-12-24T10:27:21.376Z,0.73
2022-12-24T10:29:54.247Z,0.43
2022-12-24T10:32:24.628Z,1.00
2022-12-24T10:35:14.237Z,1.02
2022-12-24T10:37:47.178Z,0.40
2022-12-24T10:40:25.816Z,0.17
2022-12-24T10:42:52.495Z,0.45
2022-12-24T10:45:23.792Z,0.43
2022-12-24T10:47:55.925Z,0.40
2022-12-24T10:50:31.147Z,0.47
2022-12-24T10:53:05.796Z,0.63
2022-12-24T10:55:32.533Z,0.95
2022-12-24T10:58:05.276Z,0.50
2022-12-24T11:00:36.316Z,1.52
2022-12-24T11:03:28.260Z,0.30
2022-12-24T11:06:06.841Z,0.32
2022-12-24T11:08:35.229Z,0.38
2022-12-24T11:11:05.480Z,0.50
2022-12-24T11:13:40.218Z,0.57
2022-12-24T11:16:14.988Z,0.55
2022-12-24T11:18:53.024Z,0.40
2022-12-24T11:21:34.421Z,0.60
2022-12-24T11:24:21.566Z,0.52
2022-12-24T11:26:48.282Z,0.32
2022-12-24T11:29:28.369Z,0.50
2022-12-24T11:32:18.556Z,0.40
2022-12-24T11:34:45.540Z,0.40
2022-12-24T11:37:23.843Z,3.03
2022-12-24T11:39:55.388Z,1.50
2022-12-24T11:42:38.061Z,1.00
2022-12-24T11:45:23.702Z,2.30
2022-12-24T11:47:51.325Z,0.85
2022-12-24T11:50:29.003Z,5.03
2022-12-24T11:53:04.365Z,4.85
2022-12-24T11:56:02.787Z,3.67
2022-12-24T11:58:39.418Z,4.93
2022-12-24T12:01:27.251Z,7.95
2022-12-24T12:06:36.769Z,3.63
2022-12-24T12:09:10.643Z,5.05
2022-12-24T12:11:40.106Z,4.78
2022-12-24T12:14:14.710Z,10.75
2022-12-24T12:17:00.800Z,5.03
2022-12-24T12:19:57.027Z,3.83
2022-12-24T12:22:45.500Z,5.07
2022-12-24T12:25:21.493Z,3.53
2022-12-24T12:27:52.211Z,1.77
2022-12-24T12:30:21.597Z,1.58
2022-12-24T12:33:04.695Z,1.02
2022-12-24T12:35:38.166Z,0.30
2022-12-24T12:38:09.500Z,0.40
2022-12-24T12:40:55.791Z,0.98
2022-12-24T12:43:22.399Z,0.77
2022-12-24T12:46:03.433Z,2.92
2022-12-24T12:48:45.344Z,0.85
2022-12-24T12:51:30.317Z,0.77
2022-12-24T12:54:15.975Z,0.50
2022-12-24T12:56:46.792Z,1.92
2022-12-24T12:59:33.760Z,0.57
2022-12-24T13:02:12.350Z,2.17
2022-12-24T13:05:23.962Z,1.45
2022-12-24T13:08:16.974Z,1.65
2022-12-24T13:11:07.663Z,0.30
2022-12-24T13:13:48.811Z,0.55
2022-12-24T13:16:39.260Z,0.45
2022-12-24T13:19:35.993Z,1.17
2022-12-24T13:24:32.864Z,3.50
2022-12-24T13:27:19.807Z,2.33
2022-12-24T13:30:27.471Z,1.25
2022-12-24T13:32:55.236Z,1.95
2022-12-24T13:35:21.834Z,0.88
2022-12-24T13:37:49.525Z,2.35
2022-12-24T13:40:26.638Z,0.70
2022-12-24T13:42:59.604Z,0.98
2022-12-24T13:45:29.273Z,0.93
2022-12-24T13:48:02.975Z,1.60
2022-12-24T13:50:45.635Z,2.95
2022-12-24T13:53:43.129Z,1.88
2022-12-24T13:56:22.495Z,1.77
2022-12-24T13:58:52.731Z,0.73
2022-12-24T14:01:34.765Z,1.48
2022-12-24T14:04:03.757Z,2.90
2022-12-24T14:06:37.262Z,0.80
2022-12-24T14:09:19.967Z,1.00
2022-12-24T14:11:58.792Z,0.65
2022-12-24T14:14:27.989Z,0.90
2022-12-24T14:16:57.948Z,1.35
2022-12-24T14:19:43.652Z,1.50
2022-12-24T14:22:22.273Z,2.65
2022-12-24T14:24:55.270Z,1.52
2022-12-24T14:27:32.073Z,2.03
2022-12-24T14:30:05.297Z,1.73
2022-12-24T14:32:40.644Z,1.70
2022-12-24T14:35:16.679Z,4.07
2022-12-24T14:37:48.611Z,3.00
2022-12-24T14:40:19.050Z,4.95
2022-12-24T14:43:13.037Z,2.50
2022-12-24T14:45:59.506Z,3.47
2022-12-24T14:48:52.603Z,2.47
2022-12-24T14:51:47.820Z,6.72
2022-12-24T14:54:39.947Z,1.55
2022-12-24T14:57:11.297Z,1.10
2022-12-24T14:59:59.727Z,2.97
2022-12-24T15:02:43.287Z,2.25
2022-12-24T15:05:13.465Z,2.40
2022-12-24T15:07:47.705Z,1.23
2022-12-24T15:10:26.136Z,1.25
2022-12-24T15:12:54.557Z,1.50
2022-12-24T15:15:21.829Z,1.75
2022-12-24T15:17:49.070Z,1.33
2022-12-24T15:20:21.843Z,2.47
2022-12-24T15:22:52.708Z,1.63
2022-12-24T15:25:31.801Z,1.50
2022-12-24T15:27:59.357Z,2.53
2022-12-24T15:30:28.800Z,2.10
2022-12-24T15:32:58.156Z,3.28
2022-12-24T15:35:35.180Z,5.07
2022-12-24T15:38:06.356Z,2.13
2022-12-24T15:40:34.749Z,3.17
2022-12-24T15:43:01.933Z,3.60
2022-12-24T15:45:32.214Z,4.18
2022-12-24T15:48:08.373Z,6.22
2022-12-24T15:50:37.358Z,4.90
2022-12-24T15:53:19.387Z,5.38
2022-12-24T15:56:00.984Z,3.97
2022-12-24T15:58:30.440Z,4.97
2022-12-24T16:01:05.647Z,3.63
2022-12-24T16:03:33.612Z,4.80
2022-12-24T16:06:08.264Z,2.78
2022-12-24T16:08:38.897Z,2.20
2022-12-24T16:11:05.539Z,2.45
2022-12-24T16:13:35.175Z,3.28
2022-12-24T16:16:35.747Z,2.45
2022-12-24T16:19:05.701Z,3.92
2022-12-24T16:21:38.855Z,2.03
2022-12-24T16:24:07.952Z,2.28
2022-12-24T16:26:35.695Z,2.80
2022-12-24T16:29:02.435Z,3.08
2022-12-24T16:31:36.363Z,1.20
2022-12-24T16:34:04.392Z,1.45
2022-12-24T16:36:32.263Z,4.38
2022-12-24T16:39:18.186Z,7.88
2022-12-24T16:42:03.745Z,2.72
2022-12-24T16:44:30.477Z,2.60
2022-12-24T16:47:00.326Z,1.83
2022-12-24T16:49:27.409Z,1.92
2022-12-24T16:51:54.267Z,39.88
2022-12-24T16:56:47.579Z,14.45
2022-12-24T16:59:19.765Z,10.95
2022-12-24T17:01:47.894Z,7.85
2022-12-24T17:04:15.530Z,5.85
2022-12-24T17:06:42.560Z,7.05
2022-12-24T17:09:11.164Z,6.88
2022-12-24T17:11:38.663Z,4.15
2022-12-24T17:14:08.322Z,10.98
2022-12-24T17:16:37.388Z,8.93
2022-12-24T17:19:04.439Z,2.63
2022-12-24T17:21:31.324Z,2.00
2022-12-24T17:23:58.133Z,3.80
2022-12-24T17:28:58.399Z,2.65
2022-12-24T17:31:25.520Z,2.78
2022-12-24T17:33:53.013Z,1.95
2022-12-24T17:36:20.676Z,3.38
2022-12-24T17:38:47.675Z,1.70
2022-12-24T17:41:17.416Z,2.00
2022-12-24T17:43:44.475Z,2.15
2022-12-24T17:46:15.246Z,2.13
2022-12-24T17:48:43.125Z,2.90
2022-12-24T17:51:12.336Z,1.67
2022-12-24T17:53:40.967Z,1.70
2022-12-24T17:56:10.576Z,5.13
2022-12-24T17:58:37.292Z,6.53
2022-12-24T18:01:04.433Z,6.78
2022-12-24T18:03:31.411Z,3.80
2022-12-24T18:06:06.016Z,3.08
2022-12-24T18:08:33.949Z,2.00
2022-12-24T18:11:00.940Z,2.70
2022-12-24T18:13:27.794Z,3.92
2022-12-24T18:18:21.269Z,4.22
2022-12-24T18:23:14.594Z,5.20
2022-12-24T18:25:41.282Z,6.18
2022-12-24T18:28:07.968Z,7.13
2022-12-24T18:33:01.293Z,3.47
2022-12-24T18:35:28.201Z,5.78
2022-12-24T18:37:54.891Z,4.47
2022-12-24T18:40:21.626Z,3.83
2022-12-24T18:45:15.145Z,32.00
2022-12-24T18:47:41.980Z,24.30
2022-12-24T18:52:35.623Z,19.30
2022-12-24T18:57:30.669Z,15.95
2022-12-24T18:59:57.316Z,10.05
2022-12-24T19:02:24.058Z,9.38
2022-12-24T19:07:17.499Z,8.43
2022-12-24T19:09:48.215Z,8.10
2022-12-24T19:12:15.672Z,7.97
2022-12-24T19:14:42.537Z,8.07
2022-12-24T19:17:09.326Z,9.30
2022-12-24T19:19:36.044Z,10.68
2022-12-24T19:22:02.891Z,9.60
2022-12-24T19:24:29.647Z,10.45
2022-12-24T19:26:56.289Z,10.13
2022-12-24T19:29:23.080Z,9.30
2022-12-24T19:34:16.631Z,7.88
2022-12-24T19:39:10.043Z,7.03
2022-12-24T19:41:36.742Z,8.15
2022-12-24T19:44:03.469Z,7.43
2022-12-24T19:46:33.883Z,4.88
2022-12-24T19:49:04.917Z,5.15
2022-12-24T19:51:31.859Z,6.97
2022-12-24T19:53:59.739Z,5.65
2022-12-24T19:56:28.209Z,3.67
2022-12-24T19:58:57.224Z,7.35
2022-12-24T20:01:26.479Z,4.25
2022-12-24T20:03:54.225Z,3.38
2022-12-24T20:06:24.276Z,3.90
2022-12-24T20:08:51.164Z,5.70
2022-12-24T20:11:20.222Z,3.28
2022-12-24T20:13:47.005Z,2.35
2022-12-24T20:18:50.419Z,2.83
2022-12-24T20:21:17.446Z,3.20
2022-12-24T20:23:44.132Z,3.58
2022-12-24T20:28:40.009Z,2.88
2022-12-24T20:31:11.235Z,2.25
2022-12-24T20:33:38.283Z,3.53
2022-12-24T20:36:06.605Z,2.78
2022-12-24T20:38:33.305Z,3.20
2022-12-24T20:46:01.624Z,5.68
2022-12-24T20:48:29.191Z,4.40
2022-12-24T20:50:57.457Z,3.38
2022-12-24T20:53:24.723Z,4.90
2022-12-24T20:55:53.123Z,5.97
2022-12-24T20:58:20.520Z,5.30
2022-12-24T21:00:48.515Z,4.47
2022-12-24T21:05:43.282Z,3.58
2022-12-24T21:08:12.089Z,5.72
2022-12-24T21:10:39.613Z,5.60
2022-12-24T21:13:06.615Z,6.93
2022-12-24T21:15:39.719Z,7.07
2022-12-24T21:18:11.349Z,9.20
2022-12-24T21:20:39.763Z,9.00
2022-12-24T21:23:06.917Z,10.10
2022-12-24T21:25:33.922Z,7.35
2022-12-24T21:28:01.995Z,8.75
2022-12-24T21:30:28.934Z,11.85
2022-12-24T21:32:55.704Z,11.85
2022-12-24T21:35:22.369Z,13.43
2022-12-24T21:37:49.219Z,10.25
2022-12-24T21:42:42.512Z,12.32
2022-12-24T21:45:10.684Z,10.98
2022-12-24T21:47:38.250Z,12.55
2022-12-24T21:50:31.597Z,11.93
2022-12-24T21:53:19.040Z,12.95
2022-12-24T21:55:45.928Z,12.50
2022-12-24T21:58:12.675Z,15.82
2022-12-24T22:03:06.515Z,12.20
2022-12-24T22:05:34.499Z,15.00
2022-12-24T22:08:20.893Z,11.75
2022-12-24T22:11:06.340Z,11.57
2022-12-24T22:13:33.206Z,14.70
2022-12-24T22:18:27.100Z,11.23
2022-12-24T22:20:55.386Z,9.98
2022-12-24T22:23:22.164Z,10.32
2022-12-24T22:28:15.565Z,6.60
2022-12-24T22:30:43.270Z,9.20
2022-12-24T22:33:10.712Z,6.55
2022-12-24T22:35:39.255Z,6.68
2022-12-24T22:38:07.791Z,6.38
2022-12-24T22:40:34.492Z,6.43
2022-12-24T22:43:01.145Z,7.60
2022-12-24T22:45:27.863Z,6.65
2022-12-24T22:50:21.212Z,7.78
2022-12-24T22:55:14.632Z,6.07
2022-12-24T22:57:41.356Z,12.80
2022-12-24T23:00:38.098Z,7.22
2022-12-24T23:03:05.648Z,10.10
2022-12-24T23:05:32.476Z,7.32
2022-12-24T23:10:25.861Z,4.53
2022-12-24T23:13:15.169Z,4.90
2022-12-24T23:15:42.799Z,5.47
2022-12-24T23:18:11.001Z,8.02
2022-12-24T23:20:40.786Z,4.28
2022-12-24T23:23:07.757Z,4.30
2022-12-24T23:25:34.567Z,7.03
2022-12-24T23:30:27.986Z,4.82
2022-12-24T23:35:21.559Z,5.43
2022-12-24T23:37:48.380Z,2.20
2022-12-24T23:42:41.747Z,4.22
2022-12-24T23:45:08.917Z,2.53
2022-12-24T23:47:35.783Z,4.85
2022-12-24T23:50:03.336Z,2.88
2022-12-24T23:52:30.256Z,6.90
2022-12-24T23:54:57.055Z,3.67
2022-12-24T23:59:50.341Z,3.17
